createdAt,value
2022-12-31T00:01:00.563Z,1.90
2022-12-31T00:03:27.589Z,0.90
2022-12-31T00:05:55.763Z,0.65
2022-12-31T00:10:49.247Z,1.05
2022-12-31T00:13:19.240Z,1.42
2022-12-31T00:15:45.841Z,1.13
2022-12-31T00:18:12.768Z,2.28
2022-12-31T00:20:42.349Z,1.70
2022-12-31T00:23:11.971Z,1.92
2022-12-31T00:25:42.225Z,1.92
2022-12-31T00:28:11.754Z,1.88
2022-12-31T00:30:40.380Z,2.53
2022-12-31T00:33:07.329Z,1.20
2022-12-31T00:35:38.487Z,1.05
2022-12-31T00:38:05.171Z,2.42
2022-12-31T00:40:32.628Z,0.95
2022-12-31T00:43:00.311Z,1.90
2022-12-31T00:45:27.720Z,1.00
2022-12-31T00:47:56.624Z,1.58
2022-12-31T00:50:23.210Z,1.27
2022-12-31T00:52:50.421Z,1.13
2022-12-31T00:55:17.487Z,1.38
2022-12-31T00:57:44.818Z,4.60
2022-12-31T01:00:13.788Z,2.22
2022-12-31T01:02:41.273Z,1.27
2022-12-31T01:05:09.136Z,1.10
2022-12-31T01:07:38.167Z,1.00
2022-12-31T01:10:05.665Z,1.63
2022-12-31T01:12:33.565Z,1.60
2022-12-31T01:15:00.106Z,0.93
2022-12-31T01:17:26.989Z,2.45
2022-12-31T01:20:00.537Z,1.05
2022-12-31T01:22:27.081Z,1.98
2022-12-31T01:24:53.694Z,4.97
2022-12-31T01:27:20.266Z,3.58
2022-12-31T01:29:46.799Z,1.33
2022-12-31T01:32:13.397Z,0.60
2022-12-31T01:34:40.512Z,4.55
2022-12-31T01:37:07.026Z,2.65
2022-12-31T01:39:36.772Z,2.25
2022-12-31T01:42:06.137Z,1.38
2022-12-31T01:44:34.905Z,1.92
2022-12-31T01:47:04.387Z,3.47
2022-12-31T01:49:40.868Z,8.75
2022-12-31T01:52:16.238Z,1.85
2022-12-31T01:54:47.426Z,2.10
2022-12-31T01:57:15.323Z,1.23
2022-12-31T01:59:43.425Z,3.30
2022-12-31T02:04:37.813Z,7.00
2022-12-31T02:07:08.144Z,6.10
2022-12-31T02:09:39.045Z,1.48
2022-12-31T02:12:07.579Z,1.50
2022-12-31T02:14:41.856Z,2.55
2022-12-31T02:17:36.742Z,2.83
2022-12-31T02:20:16.050Z,2.08
2022-12-31T02:23:09.023Z,2.55
2022-12-31T02:26:09.873Z,1.90
2022-12-31T02:28:56.307Z,1.23
2022-12-31T02:31:39.745Z,3.25
2022-12-31T02:34:27.369Z,1.67
2022-12-31T02:36:57.204Z,2.90
2022-12-31T02:39:23.956Z,4.18
2022-12-31T02:41:51.600Z,2.75
2022-12-31T02:44:24.390Z,5.40
2022-12-31T02:47:09.518Z,2.10
2022-12-31T02:49:55.471Z,3.53
2022-12-31T02:52:46.729Z,3.63
2022-12-31T02:55:16.492Z,2.28
2022-12-31T02:58:08.187Z,2.72
2022-12-31T03:01:00.106Z,1.73
2022-12-31T03:03:28.158Z,4.47
2022-12-31T03:05:55.945Z,6.10
2022-12-31T03:08:26.627Z,3.03
2022-12-31T03:10:57.051Z,0.82
2022-12-31T03:13:24.851Z,1.98
2022-12-31T03:15:51.973Z,1.63
2022-12-31T03:18:39.615Z,3.17
2022-12-31T03:21:36.331Z,1.60
2022-12-31T03:24:21.741Z,1.45
2022-12-31T03:26:48.410Z,1.58
2022-12-31T03:29:16.303Z,2.67
2022-12-31T03:31:44.924Z,1.67
2022-12-31T03:34:12.169Z,1.85
2022-12-31T03:36:40.274Z,0.83
2022-12-31T03:41:36.647Z,1.15
2022-12-31T03:44:03.191Z,1.92
2022-12-31T03:46:30.739Z,3.20
2022-12-31T03:48:58.650Z,0.52
2022-12-31T03:51:25.181Z,1.80
2022-12-31T03:53:52.628Z,2.63
2022-12-31T03:56:20.045Z,2.05
2022-12-31T03:58:46.900Z,3.85
2022-12-31T04:01:14.052Z,1.55
2022-12-31T04:03:41.541Z,1.33
2022-12-31T04:06:09.107Z,3.45
2022-12-31T04:08:36.050Z,2.03
2022-12-31T04:11:03.019Z,1.23
2022-12-31T04:13:30.126Z,2.53
2022-12-31T04:15:56.885Z,1.92
2022-12-31T04:18:24.145Z,2.60
2022-12-31T04:20:50.795Z,0.87
2022-12-31T04:23:20.804Z,2.65
2022-12-31T04:25:50.414Z,1.05
2022-12-31T04:28:17.330Z,0.88
2022-12-31T04:30:44.369Z,2.22
2022-12-31T04:33:10.866Z,1.88
2022-12-31T04:35:37.569Z,0.95
2022-12-31T04:38:04.968Z,2.10
2022-12-31T04:40:31.531Z,1.00
2022-12-31T04:42:58.332Z,1.20
2022-12-31T04:45:24.937Z,3.03
2022-12-31T04:47:51.811Z,1.67
2022-12-31T04:50:18.823Z,1.33
2022-12-31T04:52:45.822Z,1.67
2022-12-31T04:55:13.041Z,1.40
2022-12-31T04:57:41.207Z,1.67
2022-12-31T05:00:10.141Z,1.63
2022-12-31T05:02:39.184Z,1.63
2022-12-31T05:05:10.274Z,2.17
2022-12-31T05:07:37.231Z,2.00
2022-12-31T05:10:06.014Z,3.25
2022-12-31T05:12:32.839Z,2.15
2022-12-31T05:14:59.423Z,2.22
2022-12-31T05:17:27.203Z,1.25
2022-12-31T05:19:57.519Z,1.38
2022-12-31T05:22:30.048Z,1.52
2022-12-31T05:24:58.174Z,1.42
2022-12-31T05:29:52.832Z,1.50
2022-12-31T05:32:19.480Z,1.15
2022-12-31T05:34:46.001Z,1.02
2022-12-31T05:37:15.583Z,1.52
2022-12-31T05:39:42.545Z,2.30
2022-12-31T05:42:09.194Z,2.25
2022-12-31T05:44:36.275Z,4.30
2022-12-31T05:47:03.220Z,1.48
2022-12-31T05:49:31.761Z,1.80
2022-12-31T05:52:00.736Z,1.70
2022-12-31T05:54:28.080Z,2.97
2022-12-31T05:56:54.703Z,1.33
2022-12-31T05:59:21.391Z,3.30
2022-12-31T06:01:52.830Z,1.15
2022-12-31T06:04:20.622Z,0.98
2022-12-31T06:06:48.573Z,0.93
2022-12-31T06:09:18.084Z,1.20
2022-12-31T06:11:45.962Z,0.85
2022-12-31T06:14:13.386Z,2.85
2022-12-31T06:16:40.899Z,1.00
2022-12-31T06:19:07.887Z,2.63
2022-12-31T06:21:34.884Z,0.98
2022-12-31T06:24:02.035Z,0.88
2022-12-31T06:26:29.020Z,1.02
2022-12-31T06:28:55.617Z,1.27
2022-12-31T06:31:22.571Z,1.65
2022-12-31T06:33:50.314Z,1.30
2022-12-31T06:36:19.132Z,1.27
2022-12-31T06:38:46.532Z,1.60
2022-12-31T06:41:14.657Z,1.50
2022-12-31T06:46:11.637Z,1.50
2022-12-31T06:48:44.880Z,1.80
2022-12-31T06:51:17.934Z,1.67
2022-12-31T06:53:47.042Z,1.65
2022-12-31T06:56:26.478Z,1.73
2022-12-31T06:58:57.302Z,4.03
2022-12-31T07:01:41.459Z,2.80
2022-12-31T07:04:14.120Z,2.40
2022-12-31T07:06:48.674Z,2.60
2022-12-31T07:09:26.499Z,2.30
2022-12-31T07:12:04.160Z,3.42
2022-12-31T07:14:53.314Z,2.15
2022-12-31T07:17:24.595Z,1.35
2022-12-31T07:20:07.368Z,1.25
2022-12-31T07:22:34.764Z,0.85
2022-12-31T07:25:02.185Z,0.60
2022-12-31T07:27:50.377Z,0.93
2022-12-31T07:30:27.945Z,1.35
2022-12-31T07:33:16.138Z,0.47
2022-12-31T07:35:57.231Z,0.40
2022-12-31T07:38:47.843Z,0.57
2022-12-31T07:41:33.532Z,0.40
2022-12-31T07:44:14.978Z,0.20
2022-12-31T07:46:57.958Z,5.82
2022-12-31T07:49:26.985Z,0.17
2022-12-31T07:51:54.349Z,0.20
2022-12-31T07:54:21.757Z,1.90
2022-12-31T07:56:49.563Z,0.30
2022-12-31T07:59:24.449Z,0.75
2022-12-31T08:01:54.660Z,1.55
2022-12-31T08:04:42.941Z,1.00
2022-12-31T08:07:28.778Z,0.40
2022-12-31T08:10:18.013Z,0.57
2022-12-31T08:12:47.780Z,4.65
2022-12-31T08:15:19.335Z,0.82
2022-12-31T08:17:48.135Z,0.50
2022-12-31T08:20:16.754Z,0.60
2022-12-31T08:22:47.251Z,1.00
2022-12-31T08:25:14.574Z,1.67
2022-12-31T08:27:55.591Z,4.28
2022-12-31T08:30:29.849Z,0.55
2022-12-31T08:33:18.362Z,0.50
2022-12-31T08:36:16.579Z,1.90
2022-12-31T08:39:18.525Z,2.15
2022-12-31T08:41:49.833Z,0.77
2022-12-31T08:44:55.895Z,0.65
2022-12-31T08:47:22.711Z,0.52
2022-12-31T08:49:50.688Z,0.63
2022-12-31T08:54:50.332Z,0.30
2022-12-31T08:57:25.730Z,0.35
2022-12-31T09:00:05.192Z,0.30
2022-12-31T09:02:39.351Z,0.40
2022-12-31T09:05:17.766Z,0.63
2022-12-31T09:08:26.747Z,0.30
2022-12-31T09:10:56.483Z,0.40
2022-12-31T09:13:39.583Z,0.30
2022-12-31T09:16:39.953Z,0.32
2022-12-31T09:19:10.894Z,0.25
2022-12-31T09:21:38.584Z,0.30
2022-12-31T09:24:09.459Z,0.63
2022-12-31T09:27:05.009Z,0.50
2022-12-31T09:29:34.189Z,3.20
2022-12-31T09:32:12.234Z,1.55
2022-12-31T09:35:00.536Z,1.65
2022-12-31T09:37:36.689Z,1.30
2022-12-31T09:40:23.482Z,1.23
2022-12-31T09:43:03.422Z,2.43
2022-12-31T09:45:54.405Z,3.40
2022-12-31T09:48:48.268Z,1.48
2022-12-31T09:51:36.871Z,4.93
2022-12-31T09:54:32.429Z,1.95
2022-12-31T09:57:17.291Z,2.08
2022-12-31T10:00:13.141Z,3.17
2022-12-31T10:02:48.506Z,1.88
2022-12-31T10:05:46.251Z,1.73
2022-12-31T10:09:02.471Z,1.15
2022-12-31T10:11:56.693Z,3.70
2022-12-31T10:14:55.612Z,0.88
2022-12-31T10:17:22.167Z,2.15
2022-12-31T10:20:05.916Z,2.47
2022-12-31T10:23:11.344Z,2.85
2022-12-31T10:26:02.639Z,3.67
2022-12-31T10:28:35.917Z,3.35
2022-12-31T10:31:15.778Z,4.97
2022-12-31T10:33:45.091Z,1.42
2022-12-31T10:36:30.614Z,1.88
2022-12-31T10:39:24.639Z,3.05
2022-12-31T10:42:10.040Z,2.50
2022-12-31T10:44:58.118Z,2.17
2022-12-31T10:48:00.520Z,1.95
2022-12-31T10:50:48.064Z,0.80
2022-12-31T10:53:46.041Z,2.70
2022-12-31T10:56:50.311Z,8.68
2022-12-31T10:59:39.213Z,1.75
2022-12-31T11:02:28.287Z,1.35
2022-12-31T11:05:30.939Z,2.80
2022-12-31T11:08:25.337Z,2.42
2022-12-31T11:11:44.948Z,1.63
2022-12-31T11:14:53.823Z,2.17
2022-12-31T11:18:17.692Z,1.35
2022-12-31T11:21:06.831Z,1.85
2022-12-31T11:23:45.121Z,3.15
2022-12-31T11:26:22.942Z,2.92
2022-12-31T11:31:27.636Z,1.85
2022-12-31T11:34:32.915Z,2.42
2022-12-31T11:37:22.166Z,5.60
2022-12-31T11:40:01.441Z,6.07
2022-12-31T11:43:00.625Z,4.38
2022-12-31T11:46:02.299Z,4.43
2022-12-31T11:48:52.415Z,3.42
2022-12-31T11:51:51.395Z,3.45
2022-12-31T11:54:46.464Z,1.88
2022-12-31T11:57:31.348Z,5.55
2022-12-31T12:00:00.828Z,3.65
2022-12-31T12:03:02.957Z,3.03
2022-12-31T12:05:30.688Z,1.63
2022-12-31T12:07:58.170Z,1.98
2022-12-31T12:10:36.148Z,3.40
2022-12-31T12:13:13.742Z,2.85
2022-12-31T12:15:44.225Z,5.17
2022-12-31T12:18:24.419Z,2.00
2022-12-31T12:20:53.499Z,3.22
2022-12-31T12:23:26.324Z,5.30
2022-12-31T12:25:53.344Z,3.15
2022-12-31T12:28:30.436Z,1.93
2022-12-31T12:31:03.470Z,4.30
2022-12-31T12:33:42.893Z,3.75
2022-12-31T12:36:13.429Z,5.75
2022-12-31T12:38:40.426Z,1.75
2022-12-31T12:41:25.281Z,5.87
2022-12-31T12:44:06.725Z,2.08
2022-12-31T12:46:48.626Z,4.55
2022-12-31T12:49:41.644Z,6.50
2022-12-31T12:52:42.368Z,7.38
2022-12-31T12:55:35.332Z,1.33
2022-12-31T12:58:48.509Z,5.97
2022-12-31T13:01:40.838Z,5.38
2022-12-31T13:04:45.693Z,3.25
2022-12-31T13:07:31.163Z,7.45
2022-12-31T13:10:16.041Z,11.30
2022-12-31T13:13:26.022Z,2.53
2022-12-31T13:16:34.616Z,6.50
2022-12-31T13:19:10.298Z,3.60
2022-12-31T13:22:21.671Z,1.42
2022-12-31T13:25:14.288Z,3.38
2022-12-31T13:27:44.906Z,2.45
2022-12-31T13:30:21.117Z,3.47
2022-12-31T13:32:56.058Z,5.30
2022-12-31T13:35:33.354Z,4.38
2022-12-31T13:38:23.104Z,6.90
2022-12-31T13:40:57.600Z,2.90
2022-12-31T13:43:51.281Z,2.78
2022-12-31T13:46:37.602Z,4.10
2022-12-31T13:49:14.714Z,3.55
2022-12-31T13:51:55.049Z,5.18
2022-12-31T13:54:34.817Z,3.53
2022-12-31T13:57:14.806Z,4.78
2022-12-31T13:59:48.076Z,3.42
2022-12-31T14:02:52.686Z,3.65
2022-12-31T14:05:27.137Z,4.05
2022-12-31T14:07:55.970Z,5.38
2022-12-31T14:10:46.621Z,4.30
2022-12-31T14:13:34.155Z,3.30
2022-12-31T14:16:27.444Z,1.88
2022-12-31T14:19:19.111Z,4.65
2022-12-31T14:22:04.887Z,3.80
2022-12-31T14:24:46.542Z,6.85
2022-12-31T14:27:27.520Z,4.70
2022-12-31T14:30:16.962Z,5.07
2022-12-31T14:33:07.573Z,15.10
2022-12-31T14:35:36.795Z,14.05
2022-12-31T14:38:40.434Z,12.63
2022-12-31T14:41:22.981Z,4.15
2022-12-31T14:44:14.290Z,2.65
2022-12-31T14:46:52.873Z,2.05
2022-12-31T14:49:40.540Z,4.03
2022-12-31T14:52:18.685Z,2.67
2022-12-31T14:54:48.236Z,2.88
2022-12-31T14:57:17.540Z,4.55
2022-12-31T15:00:00.797Z,5.05
2022-12-31T15:02:34.330Z,7.00
2022-12-31T15:05:17.315Z,4.78
2022-12-31T15:07:46.858Z,7.65
2022-12-31T15:10:27.029Z,7.03
2022-12-31T15:13:02.262Z,6.75
2022-12-31T15:15:37.643Z,10.35
2022-12-31T15:18:28.525Z,7.45
2022-12-31T15:21:04.772Z,9.85
2022-12-31T15:23:40.079Z,5.28
2022-12-31T15:26:27.466Z,9.27
2022-12-31T15:29:02.923Z,6.22
2022-12-31T15:31:30.413Z,11.95
2022-12-31T15:34:23.633Z,7.68
2022-12-31T15:37:00.356Z,5.90
2022-12-31T15:39:33.011Z,7.80
2022-12-31T15:42:36.635Z,7.63
2022-12-31T15:45:02.740Z,15.80
2022-12-31T15:47:45.992Z,5.78
2022-12-31T15:50:20.356Z,8.93
2022-12-31T15:52:56.642Z,9.30
2022-12-31T15:55:23.529Z,7.53
2022-12-31T15:57:50.822Z,5.20
2022-12-31T16:00:22.676Z,7.28
2022-12-31T16:02:54.545Z,4.15
2022-12-31T16:05:24.500Z,7.57
2022-12-31T16:07:56.839Z,10.05
2022-12-31T16:10:31.681Z,9.77
2022-12-31T16:13:02.779Z,7.15
2022-12-31T16:15:34.258Z,9.52
2022-12-31T16:18:04.707Z,7.95
2022-12-31T16:20:33.963Z,6.40
2022-12-31T16:23:03.530Z,5.63
2022-12-31T16:25:33.518Z,15.82
2022-12-31T16:28:04.230Z,8.02
2022-12-31T16:30:36.587Z,7.95
2022-12-31T16:33:07.391Z,9.43
2022-12-31T16:35:37.249Z,5.72
2022-12-31T16:38:12.631Z,9.23
2022-12-31T16:41:06.340Z,7.25
2022-12-31T16:43:37.340Z,8.13
2022-12-31T16:46:27.331Z,10.65
2022-12-31T16:48:57.173Z,8.25
2022-12-31T16:51:31.084Z,13.82
2022-12-31T16:53:58.628Z,9.15
2022-12-31T16:56:40.338Z,10.57
2022-12-31T16:59:24.239Z,7.40
2022-12-31T17:01:51.864Z,9.02
2022-12-31T17:04:21.321Z,9.65
2022-12-31T17:06:48.889Z,7.05
2022-12-31T17:09:33.826Z,7.47
2022-12-31T17:12:16.588Z,6.32
2022-12-31T17:14:51.275Z,7.35
2022-12-31T17:17:26.120Z,5.97
2022-12-31T17:20:01.236Z,4.10
2022-12-31T17:22:44.274Z,6.75
2022-12-31T17:25:27.307Z,6.55
2022-12-31T17:27:58.391Z,2.88
2022-12-31T17:30:27.731Z,5.32
2022-12-31T17:33:09.747Z,6.07
2022-12-31T17:35:42.271Z,8.00
2022-12-31T17:38:20.984Z,5.70
2022-12-31T17:40:52.274Z,10.18
2022-12-31T17:43:21.995Z,6.15
2022-12-31T17:45:51.893Z,5.00
2022-12-31T17:48:19.857Z,6.45
2022-12-31T17:53:14.775Z,7.88
2022-12-31T17:55:45.640Z,20.30
2022-12-31T17:58:24.719Z,5.45
2022-12-31T18:00:58.700Z,6.72
2022-12-31T18:03:31.211Z,6.93
2022-12-31T18:05:58.354Z,4.88
2022-12-31T18:08:26.045Z,6.87
2022-12-31T18:10:56.080Z,8.85
2022-12-31T18:13:25.268Z,3.67
2022-12-31T18:15:54.899Z,3.70
2022-12-31T18:18:30.699Z,13.05
2022-12-31T18:21:01.170Z,10.15
2022-12-31T18:23:38.705Z,14.93
2022-12-31T18:26:12.964Z,9.45
2022-12-31T18:28:39.478Z,6.10
2022-12-31T18:31:06.210Z,6.78
2022-12-31T18:33:36.838Z,6.47
2022-12-31T18:36:10.792Z,6.15
2022-12-31T18:38:38.066Z,13.52
2022-12-31T18:41:05.440Z,13.85
2022-12-31T18:43:32.363Z,6.05
2022-12-31T18:46:00.286Z,6.60
2022-12-31T18:50:53.492Z,6.35
2022-12-31T18:53:25.418Z,8.38
2022-12-31T18:55:57.012Z,5.97
2022-12-31T18:58:24.286Z,4.80
2022-12-31T19:00:52.204Z,7.28
2022-12-31T19:05:49.867Z,10.07
2022-12-31T19:08:19.460Z,7.88
2022-12-31T19:10:47.267Z,5.53
2022-12-31T19:13:15.615Z,6.65
2022-12-31T19:15:45.780Z,7.28
2022-12-31T19:18:15.641Z,5.50
2022-12-31T19:20:44.291Z,2.70
2022-12-31T19:23:18.188Z,14.82
2022-12-31T19:25:46.936Z,6.03
2022-12-31T19:28:20.318Z,9.43
2022-12-31T19:30:46.958Z,6.78
2022-12-31T19:33:14.142Z,6.38
2022-12-31T19:35:41.950Z,5.88
2022-12-31T19:38:29.092Z,8.95
2022-12-31T19:40:56.023Z,12.20
2022-12-31T19:43:23.899Z,14.77
2022-12-31T19:45:51.660Z,3.25
2022-12-31T19:48:30.308Z,9.43
2022-12-31T19:51:06.157Z,13.23
2022-12-31T19:53:32.796Z,9.60
2022-12-31T19:56:05.321Z,5.95
2022-12-31T19:58:32.365Z,4.57
2022-12-31T20:01:02.708Z,7.87
2022-12-31T20:03:33.115Z,6.90
2022-12-31T20:06:13.051Z,8.60
2022-12-31T20:08:43.593Z,6.15
2022-12-31T20:11:17.289Z,4.35
2022-12-31T20:13:49.661Z,5.10
2022-12-31T20:16:19.284Z,7.18
2022-12-31T20:18:49.920Z,6.85
2022-12-31T20:21:25.468Z,6.20
2022-12-31T20:23:54.264Z,12.52
2022-12-31T20:26:23.367Z,6.95
2022-12-31T20:28:52.829Z,14.32
2022-12-31T20:31:23.318Z,13.88
2022-12-31T20:33:50.473Z,7.45
2022-12-31T20:36:19.711Z,10.23
2022-12-31T20:38:46.460Z,11.88
2022-12-31T20:41:17.594Z,9.55
2022-12-31T20:43:47.872Z,10.70
2022-12-31T20:46:21.144Z,13.30
2022-12-31T20:48:49.741Z,12.50
2022-12-31T20:51:17.911Z,6.70
2022-12-31T20:53:52.723Z,7.53
2022-12-31T20:56:19.742Z,6.05
2022-12-31T20:58:46.701Z,11.90
2022-12-31T21:01:22.171Z,9.82
2022-12-31T21:04:06.667Z,6.35
2022-12-31T21:06:34.955Z,11.80
2022-12-31T21:09:03.392Z,6.55
2022-12-31T21:11:48.587Z,17.83
2022-12-31T21:14:15.752Z,9.05
2022-12-31T21:16:45.040Z,15.57
2022-12-31T21:19:12.494Z,12.90
2022-12-31T21:21:39.729Z,10.40
2022-12-31T21:24:09.025Z,13.63
2022-12-31T21:26:35.676Z,11.20
2022-12-31T21:29:03.334Z,7.30
2022-12-31T21:31:30.153Z,9.73
2022-12-31T21:33:57.707Z,10.50
2022-12-31T21:36:24.605Z,10.18
2022-12-31T21:38:51.164Z,6.28
2022-12-31T21:41:36.558Z,11.52
2022-12-31T21:44:03.818Z,16.55
2022-12-31T21:46:32.273Z,7.50
2022-12-31T21:49:00.261Z,5.35
2022-12-31T21:53:54.579Z,7.63
2022-12-31T21:56:21.844Z,9.48
2022-12-31T21:59:14.642Z,11.23
2022-12-31T22:02:01.030Z,7.93
2022-12-31T22:05:00.783Z,10.25
2022-12-31T22:07:15.378Z,7.23
2022-12-31T22:09:41.978Z,5.30
2022-12-31T22:12:08.475Z,8.90
2022-12-31T22:14:37.348Z,10.73
2022-12-31T22:17:06.862Z,7.95
2022-12-31T22:19:39.304Z,11.10
2022-12-31T22:22:20.519Z,12.25
2022-12-31T22:24:47.446Z,13.82
2022-12-31T22:27:29.578Z,7.28
2022-12-31T22:29:59.379Z,11.82
2022-12-31T22:32:26.191Z,15.98
2022-12-31T22:34:52.895Z,8.15
2022-12-31T22:37:55.142Z,9.50
2022-12-31T22:40:07.173Z,11.07
2022-12-31T22:42:33.835Z,13.43
2022-12-31T22:45:01.999Z,5.38
2022-12-31T22:47:30.620Z,7.63
2022-12-31T22:49:58.063Z,15.80
2022-12-31T22:52:24.825Z,11.15
2022-12-31T22:54:54.192Z,17.75
2022-12-31T22:57:23.116Z,5.15
2022-12-31T22:59:51.335Z,7.60
2022-12-31T23:02:18.514Z,9.70
2022-12-31T23:04:47.113Z,6.60
2022-12-31T23:07:16.383Z,7.50
2022-12-31T23:10:03.414Z,12.32
2022-12-31T23:12:30.047Z,15.82
2022-12-31T23:15:18.509Z,11.40
2022-12-31T23:18:03.772Z,9.90
2022-12-31T23:20:50.014Z,9.48
2022-12-31T23:23:17.504Z,19.15
2022-12-31T23:25:51.917Z,11.70
2022-12-31T23:28:24.010Z,11.18
2022-12-31T23:30:51.592Z,14.82
2022-12-31T23:33:20.771Z,14.40
2022-12-31T23:35:48.071Z,18.60
2022-12-31T23:38:21.426Z,13.05
2022-12-31T23:40:48.784Z,12.18
2022-12-31T23:43:21.399Z,18.00
2022-12-31T23:45:50.045Z,14.95
2022-12-31T23:48:16.900Z,11.43
2022-12-31T23:50:50.823Z,10.75
2022-12-31T23:53:19.938Z,10.60
2022-12-31T23:55:49.063Z,19.07
2022-12-31T23:58:19.160Z,14.38
